sensor_id;sensor_type;location;lat;lon;timestamp;P1;durP1;ratioP1;P2;durP2;ratioP2
25327;SDS011;13279;51.300;12.394;2023-03-13T00:00:57;15.10;;;3.70;;
25327;SDS011;13279;51.300;12.394;2023-03-13T00:03:26;10.00;;;3.43;;
25327;SDS011;13279;51.300;12.394;2023-03-13T00:05:54;11.60;;;3.67;;
25327;SDS011;13279;51.300;12.394;2023-03-13T00:08:22;14.37;;;3.87;;
25327;SDS011;13279;51.300;12.394;2023-03-13T00:10:49;10.43;;;2.83;;
25327;SDS011;13279;51.300;12.394;2023-03-13T00:13:17;8.40;;;3.33;;
25327;SDS011;13279;51.300;12.394;2023-03-13T00:15:46;10.97;;;3.20;;
25327;SDS011;13279;51.300;12.394;2023-03-13T00:18:13;14.93;;;3.73;;
25327;SDS011;13279;51.300;12.394;2023-03-13T00:20:41;9.57;;;3.23;;
25327;SDS011;13279;51.300;12.394;2023-03-13T00:23:12;18.00;;;4.80;;
25327;SDS011;13279;51.300;12.394;2023-03-13T00:25:39;18.23;;;3.80;;
25327;SDS011;13279;51.300;12.394;2023-03-13T00:28:07;14.43;;;3.60;;
25327;SDS011;13279;51.300;12.394;2023-03-13T00:30:34;10.23;;;3.77;;
25327;SDS011;13279;51.300;12.394;2023-03-13T00:33:03;13.80;;;3.27;;
25327;SDS011;13279;51.300;12.394;2023-03-13T00:35:30;12.97;;;3.33;;
25327;SDS011;13279;51.300;12.394;2023-03-13T00:37:58;12.90;;;3.60;;
25327;SDS011;13279;51.300;12.394;2023-03-13T00:40:25;15.77;;;3.67;;
25327;SDS011;13279;51.300;12.394;2023-03-13T00:42:53;16.30;;;3.47;;
25327;SDS011;13279;51.300;12.394;2023-03-13T00:45:20;14.97;;;3.77;;
25327;SDS011;13279;51.300;12.394;2023-03-13T00:47:47;17.23;;;4.00;;
25327;SDS011;13279;51.300;12.394;2023-03-13T00:50:16;15.07;;;4.03;;
25327;SDS011;13279;51.300;12.394;2023-03-13T00:52:44;16.03;;;3.53;;
25327;SDS011;13279;51.300;12.394;2023-03-13T00:55:11;11.40;;;3.30;;
25327;SDS011;13279;51.300;12.394;2023-03-13T00:57:39;11.87;;;3.30;;
25327;SDS011;13279;51.300;12.394;2023-03-13T01:00:07;11.50;;;3.30;;
25327;SDS011;13279;51.300;12.394;2023-03-13T01:02:39;12.23;;;4.67;;
25327;SDS011;13279;51.300;12.394;2023-03-13T01:05:08;19.17;;;3.83;;
25327;SDS011;13279;51.300;12.394;2023-03-13T01:07:38;14.80;;;3.77;;
25327;SDS011;13279;51.300;12.394;2023-03-13T01:10:06;8.67;;;3.40;;
25327;SDS011;13279;51.300;12.394;2023-03-13T01:12:34;12.00;;;3.70;;
25327;SDS011;13279;51.300;12.394;2023-03-13T01:15:03;15.37;;;3.30;;
25327;SDS011;13279;51.300;12.394;2023-03-13T01:17:31;15.63;;;3.80;;
25327;SDS011;13279;51.300;12.394;2023-03-13T01:19:58;11.93;;;3.67;;
25327;SDS011;13279;51.300;12.394;2023-03-13T01:22:26;12.53;;;3.33;;
25327;SDS011;13279;51.300;12.394;2023-03-13T01:24:54;12.10;;;3.03;;
25327;SDS011;13279;51.300;12.394;2023-03-13T01:27:22;14.10;;;3.93;;
25327;SDS011;13279;51.300;12.394;2023-03-13T01:29:49;14.40;;;4.53;;
25327;SDS011;13279;51.300;12.394;2023-03-13T01:32:17;20.40;;;3.70;;
25327;SDS011;13279;51.300;12.394;2023-03-13T01:34:44;13.63;;;3.57;;
25327;SDS011;13279;51.300;12.394;2023-03-13T01:37:12;12.20;;;3.50;;
25327;SDS011;13279;51.300;12.394;2023-03-13T01:39:39;14.70;;;3.43;;
25327;SDS011;13279;51.300;12.394;2023-03-13T01:42:09;8.07;;;2.77;;
25327;SDS011;13279;51.300;12.394;2023-03-13T01:44:47;18.47;;;3.60;;
25327;SDS011;13279;51.300;12.394;2023-03-13T01:47:17;17.13;;;3.73;;
25327;SDS011;13279;51.300;12.394;2023-03-13T01:50:05;18.53;;;3.10;;
25327;SDS011;13279;51.300;12.394;2023-03-13T01:52:53;27.37;;;3.80;;
25327;SDS011;13279;51.300;12.394;2023-03-13T01:55:26;17.23;;;3.30;;
25327;SDS011;13279;51.300;12.394;2023-03-13T01:57:55;19.60;;;3.90;;
25327;SDS011;13279;51.300;12.394;2023-03-13T02:00:23;17.47;;;3.20;;
25327;SDS011;13279;51.300;12.394;2023-03-13T02:02:53;8.10;;;2.70;;
25327;SDS011;13279;51.300;12.394;2023-03-13T02:05:23;17.20;;;3.10;;
25327;SDS011;13279;51.300;12.394;2023-03-13T02:07:54;10.50;;;2.60;;
25327;SDS011;13279;51.300;12.394;2023-03-13T02:10:25;14.43;;;4.43;;
25327;SDS011;13279;51.300;12.394;2023-03-13T02:12:56;24.27;;;4.27;;
25327;SDS011;13279;51.300;12.394;2023-03-13T02:15:26;19.10;;;3.70;;
25327;SDS011;13279;51.300;12.394;2023-03-13T02:17:55;17.73;;;3.40;;
25327;SDS011;13279;51.300;12.394;2023-03-13T02:20:25;17.30;;;3.47;;
25327;SDS011;13279;51.300;12.394;2023-03-13T02:22:52;14.90;;;3.03;;
25327;SDS011;13279;51.300;12.394;2023-03-13T02:25:33;15.57;;;2.90;;
25327;SDS011;13279;51.300;12.394;2023-03-13T02:28:07;16.00;;;3.10;;
25327;SDS011;13279;51.300;12.394;2023-03-13T02:30:39;19.07;;;3.70;;
25327;SDS011;13279;51.300;12.394;2023-03-13T02:33:09;18.33;;;3.30;;
25327;SDS011;13279;51.300;12.394;2023-03-13T02:35:37;12.77;;;3.33;;
25327;SDS011;13279;51.300;12.394;2023-03-13T02:38:09;17.07;;;4.00;;
25327;SDS011;13279;51.300;12.394;2023-03-13T02:40:41;15.10;;;3.40;;
25327;SDS011;13279;51.300;12.394;2023-03-13T02:43:13;14.27;;;3.03;;
25327;SDS011;13279;51.300;12.394;2023-03-13T02:45:59;13.50;;;4.17;;
25327;SDS011;13279;51.300;12.394;2023-03-13T02:48:34;14.33;;;3.23;;
25327;SDS011;13279;51.300;12.394;2023-03-13T02:51:05;20.90;;;3.70;;
25327;SDS011;13279;51.300;12.394;2023-03-13T02:53:37;14.97;;;2.83;;
25327;SDS011;13279;51.300;12.394;2023-03-13T02:56:06;12.43;;;3.43;;
25327;SDS011;13279;51.300;12.394;2023-03-13T02:58:36;13.27;;;3.23;;
25327;SDS011;13279;51.300;12.394;2023-03-13T03:01:08;20.53;;;3.03;;
25327;SDS011;13279;51.300;12.394;2023-03-13T03:03:38;15.50;;;3.60;;
25327;SDS011;13279;51.300;12.394;2023-03-13T03:06:06;12.40;;;2.97;;
25327;SDS011;13279;51.300;12.394;2023-03-13T03:08:33;21.90;;;3.57;;
25327;SDS011;13279;51.300;12.394;2023-03-13T03:11:02;11.63;;;3.20;;
25327;SDS011;13279;51.300;12.394;2023-03-13T03:13:33;17.33;;;3.17;;
25327;SDS011;13279;51.300;12.394;2023-03-13T03:16:04;15.53;;;3.17;;
25327;SDS011;13279;51.300;12.394;2023-03-13T03:18:33;17.20;;;3.10;;
25327;SDS011;13279;51.300;12.394;2023-03-13T03:21:02;18.30;;;2.87;;
25327;SDS011;13279;51.300;12.394;2023-03-13T03:23:35;15.33;;;3.30;;
25327;SDS011;13279;51.300;12.394;2023-03-13T03:26:03;8.53;;;2.67;;
25327;SDS011;13279;51.300;12.394;2023-03-13T03:28:33;14.97;;;2.93;;
25327;SDS011;13279;51.300;12.394;2023-03-13T03:31:06;12.83;;;3.43;;
25327;SDS011;13279;51.300;12.394;2023-03-13T03:33:36;14.87;;;3.00;;
25327;SDS011;13279;51.300;12.394;2023-03-13T03:36:08;22.77;;;3.63;;
25327;SDS011;13279;51.300;12.394;2023-03-13T03:38:38;17.67;;;3.23;;
25327;SDS011;13279;51.300;12.394;2023-03-13T03:41:07;8.83;;;2.53;;
25327;SDS011;13279;51.300;12.394;2023-03-13T03:43:38;12.13;;;3.10;;
25327;SDS011;13279;51.300;12.394;2023-03-13T03:46:07;12.33;;;3.63;;
25327;SDS011;13279;51.300;12.394;2023-03-13T03:48:36;20.47;;;3.77;;
25327;SDS011;13279;51.300;12.394;2023-03-13T03:51:05;15.77;;;3.50;;
25327;SDS011;13279;51.300;12.394;2023-03-13T03:53:36;26.97;;;3.70;;
25327;SDS011;13279;51.300;12.394;2023-03-13T03:56:04;16.23;;;3.03;;
25327;SDS011;13279;51.300;12.394;2023-03-13T03:58:39;13.57;;;3.83;;
25327;SDS011;13279;51.300;12.394;2023-03-13T04:01:33;20.00;;;3.40;;
25327;SDS011;13279;51.300;12.394;2023-03-13T04:04:02;16.47;;;4.07;;
25327;SDS011;13279;51.300;12.394;2023-03-13T04:06:30;11.83;;;2.63;;
25327;SDS011;13279;51.300;12.394;2023-03-13T04:08:58;14.50;;;3.20;;
25327;SDS011;13279;51.300;12.394;2023-03-13T04:11:28;12.73;;;3.20;;
25327;SDS011;13279;51.300;12.394;2023-03-13T04:13:58;14.40;;;3.47;;
25327;SDS011;13279;51.300;12.394;2023-03-13T04:16:26;24.07;;;3.70;;
25327;SDS011;13279;51.300;12.394;2023-03-13T04:18:54;8.80;;;2.03;;
25327;SDS011;13279;51.300;12.394;2023-03-13T04:21:24;16.77;;;2.63;;
25327;SDS011;13279;51.300;12.394;2023-03-13T04:23:58;26.40;;;3.90;;
25327;SDS011;13279;51.300;12.394;2023-03-13T04:26:26;19.03;;;3.30;;
25327;SDS011;13279;51.300;12.394;2023-03-13T04:28:55;16.30;;;3.27;;
25327;SDS011;13279;51.300;12.394;2023-03-13T04:31:43;17.57;;;4.03;;
25327;SDS011;13279;51.300;12.394;2023-03-13T04:34:22;11.00;;;2.97;;
25327;SDS011;13279;51.300;12.394;2023-03-13T04:36:58;21.33;;;3.10;;
25327;SDS011;13279;51.300;12.394;2023-03-13T04:39:36;14.27;;;3.60;;
25327;SDS011;13279;51.300;12.394;2023-03-13T04:42:15;28.10;;;4.43;;
25327;SDS011;13279;51.300;12.394;2023-03-13T04:45:03;21.10;;;3.43;;
25327;SDS011;13279;51.300;12.394;2023-03-13T04:47:46;14.83;;;2.73;;
25327;SDS011;13279;51.300;12.394;2023-03-13T04:50:34;16.37;;;2.40;;
25327;SDS011;13279;51.300;12.394;2023-03-13T04:53:21;18.23;;;3.40;;
25327;SDS011;13279;51.300;12.394;2023-03-13T04:55:57;15.93;;;2.50;;
25327;SDS011;13279;51.300;12.394;2023-03-13T04:58:43;13.87;;;3.20;;
25327;SDS011;13279;51.300;12.394;2023-03-13T05:01:24;19.20;;;3.13;;
25327;SDS011;13279;51.300;12.394;2023-03-13T05:04:26;17.17;;;3.83;;
25327;SDS011;13279;51.300;12.394;2023-03-13T05:07:15;13.83;;;2.70;;
25327;SDS011;13279;51.300;12.394;2023-03-13T05:10:09;16.43;;;3.00;;
25327;SDS011;13279;51.300;12.394;2023-03-13T05:13:03;22.10;;;3.27;;
25327;SDS011;13279;51.300;12.394;2023-03-13T05:15:54;20.40;;;3.93;;
25327;SDS011;13279;51.300;12.394;2023-03-13T05:18:47;17.47;;;3.73;;
25327;SDS011;13279;51.300;12.394;2023-03-13T05:21:36;9.80;;;2.73;;
25327;SDS011;13279;51.300;12.394;2023-03-13T05:24:33;16.20;;;2.83;;
25327;SDS011;13279;51.300;12.394;2023-03-13T05:27:26;17.03;;;3.03;;
25327;SDS011;13279;51.300;12.394;2023-03-13T05:30:10;11.53;;;3.13;;
25327;SDS011;13279;51.300;12.394;2023-03-13T05:33:16;9.90;;;2.67;;
25327;SDS011;13279;51.300;12.394;2023-03-13T05:36:04;9.10;;;2.90;;
25327;SDS011;13279;51.300;12.394;2023-03-13T05:38:45;13.47;;;2.73;;
25327;SDS011;13279;51.300;12.394;2023-03-13T05:41:39;16.30;;;2.70;;
25327;SDS011;13279;51.300;12.394;2023-03-13T05:44:27;12.37;;;3.57;;
25327;SDS011;13279;51.300;12.394;2023-03-13T05:46:57;8.30;;;2.67;;
25327;SDS011;13279;51.300;12.394;2023-03-13T05:49:45;10.37;;;2.80;;
25327;SDS011;13279;51.300;12.394;2023-03-13T05:52:35;12.20;;;2.47;;
25327;SDS011;13279;51.300;12.394;2023-03-13T05:55:04;15.33;;;3.37;;
25327;SDS011;13279;51.300;12.394;2023-03-13T05:57:58;8.17;;;2.60;;
25327;SDS011;13279;51.300;12.394;2023-03-13T06:00:40;21.47;;;3.13;;
25327;SDS011;13279;51.300;12.394;2023-03-13T06:03:44;14.60;;;3.30;;
25327;SDS011;13279;51.300;12.394;2023-03-13T06:06:13;17.50;;;3.10;;
25327;SDS011;13279;51.300;12.394;2023-03-13T06:08:50;11.90;;;2.50;;
25327;SDS011;13279;51.300;12.394;2023-03-13T06:11:20;15.10;;;2.60;;
25327;SDS011;13279;51.300;12.394;2023-03-13T06:13:49;8.47;;;2.93;;
25327;SDS011;13279;51.300;12.394;2023-03-13T06:16:24;18.00;;;2.53;;
25327;SDS011;13279;51.300;12.394;2023-03-13T06:18:56;11.67;;;2.43;;
25327;SDS011;13279;51.300;12.394;2023-03-13T06:21:24;11.10;;;2.70;;
25327;SDS011;13279;51.300;12.394;2023-03-13T06:23:53;11.00;;;2.50;;
25327;SDS011;13279;51.300;12.394;2023-03-13T06:26:21;14.03;;;2.63;;
25327;SDS011;13279;51.300;12.394;2023-03-13T06:28:50;13.67;;;2.70;;
25327;SDS011;13279;51.300;12.394;2023-03-13T06:31:17;14.23;;;3.03;;
25327;SDS011;13279;51.300;12.394;2023-03-13T06:33:45;18.27;;;2.50;;
25327;SDS011;13279;51.300;12.394;2023-03-13T06:36:13;6.03;;;2.03;;
25327;SDS011;13279;51.300;12.394;2023-03-13T06:38:41;11.87;;;2.60;;
25327;SDS011;13279;51.300;12.394;2023-03-13T06:41:08;12.07;;;2.67;;
25327;SDS011;13279;51.300;12.394;2023-03-13T06:43:37;12.37;;;2.13;;
25327;SDS011;13279;51.300;12.394;2023-03-13T06:46:05;11.60;;;2.70;;
25327;SDS011;13279;51.300;12.394;2023-03-13T06:48:34;8.97;;;2.73;;
25327;SDS011;13279;51.300;12.394;2023-03-13T06:51:02;8.97;;;3.43;;
25327;SDS011;13279;51.300;12.394;2023-03-13T06:53:29;14.07;;;2.43;;
25327;SDS011;13279;51.300;12.394;2023-03-13T06:55:59;20.40;;;2.83;;
25327;SDS011;13279;51.300;12.394;2023-03-13T06:58:27;13.13;;;2.87;;
25327;SDS011;13279;51.300;12.394;2023-03-13T07:00:56;11.93;;;2.17;;
25327;SDS011;13279;51.300;12.394;2023-03-13T07:03:23;10.50;;;2.23;;
25327;SDS011;13279;51.300;12.394;2023-03-13T07:05:54;8.27;;;2.00;;
25327;SDS011;13279;51.300;12.394;2023-03-13T07:08:22;10.33;;;2.50;;
25327;SDS011;13279;51.300;12.394;2023-03-13T07:10:49;9.00;;;2.00;;
25327;SDS011;13279;51.300;12.394;2023-03-13T07:13:17;13.23;;;2.43;;
25327;SDS011;13279;51.300;12.394;2023-03-13T07:15:46;7.40;;;1.97;;
25327;SDS011;13279;51.300;12.394;2023-03-13T07:18:15;10.13;;;2.20;;
25327;SDS011;13279;51.300;12.394;2023-03-13T07:20:43;10.50;;;2.30;;
25327;SDS011;13279;51.300;12.394;2023-03-13T07:23:10;7.80;;;2.00;;
25327;SDS011;13279;51.300;12.394;2023-03-13T07:25:38;6.70;;;2.40;;
25327;SDS011;13279;51.300;12.394;2023-03-13T07:28:05;6.20;;;2.80;;
25327;SDS011;13279;51.300;12.394;2023-03-13T07:30:33;8.33;;;2.23;;
25327;SDS011;13279;51.300;12.394;2023-03-13T07:33:00;5.07;;;1.73;;
25327;SDS011;13279;51.300;12.394;2023-03-13T07:35:28;6.67;;;1.77;;
25327;SDS011;13279;51.300;12.394;2023-03-13T07:37:56;10.07;;;1.80;;
25327;SDS011;13279;51.300;12.394;2023-03-13T07:40:23;8.37;;;1.97;;
25327;SDS011;13279;51.300;12.394;2023-03-13T07:42:51;9.37;;;1.80;;
25327;SDS011;13279;51.300;12.394;2023-03-13T07:45:18;9.73;;;2.13;;
25327;SDS011;13279;51.300;12.394;2023-03-13T07:47:45;5.90;;;1.70;;
25327;SDS011;13279;51.300;12.394;2023-03-13T07:50:13;7.60;;;1.13;;
25327;SDS011;13279;51.300;12.394;2023-03-13T07:52:42;5.40;;;1.63;;
25327;SDS011;13279;51.300;12.394;2023-03-13T07:55:09;8.10;;;2.87;;
25327;SDS011;13279;51.300;12.394;2023-03-13T07:57:37;2.43;;;1.47;;
25327;SDS011;13279;51.300;12.394;2023-03-13T08:00:05;2.70;;;1.30;;
25327;SDS011;13279;51.300;12.394;2023-03-13T08:02:40;3.67;;;1.50;;
25327;SDS011;13279;51.300;12.394;2023-03-13T08:05:08;3.27;;;1.40;;
25327;SDS011;13279;51.300;12.394;2023-03-13T08:07:36;1.97;;;0.83;;
25327;SDS011;13279;51.300;12.394;2023-03-13T08:10:10;3.70;;;1.00;;
25327;SDS011;13279;51.300;12.394;2023-03-13T08:12:37;5.40;;;1.37;;
25327;SDS011;13279;51.300;12.394;2023-03-13T08:15:06;2.73;;;1.30;;
25327;SDS011;13279;51.300;12.394;2023-03-13T08:17:34;3.17;;;1.20;;
25327;SDS011;13279;51.300;12.394;2023-03-13T08:20:01;1.53;;;0.90;;
25327;SDS011;13279;51.300;12.394;2023-03-13T08:22:30;3.20;;;1.17;;
25327;SDS011;13279;51.300;12.394;2023-03-13T08:24:57;5.10;;;0.90;;
25327;SDS011;13279;51.300;12.394;2023-03-13T08:27:26;6.67;;;1.07;;
25327;SDS011;13279;51.300;12.394;2023-03-13T08:29:55;0.90;;;0.60;;
25327;SDS011;13279;51.300;12.394;2023-03-13T08:32:23;0.93;;;0.87;;
25327;SDS011;13279;51.300;12.394;2023-03-13T08:34:50;4.33;;;0.80;;
25327;SDS011;13279;51.300;12.394;2023-03-13T08:37:18;2.17;;;0.97;;
25327;SDS011;13279;51.300;12.394;2023-03-13T08:39:45;3.23;;;1.00;;
25327;SDS011;13279;51.300;12.394;2023-03-13T08:42:13;1.20;;;0.90;;
25327;SDS011;13279;51.300;12.394;2023-03-13T08:44:42;1.30;;;0.73;;
25327;SDS011;13279;51.300;12.394;2023-03-13T08:47:10;2.07;;;0.93;;
25327;SDS011;13279;51.300;12.394;2023-03-13T08:49:38;2.03;;;0.70;;
25327;SDS011;13279;51.300;12.394;2023-03-13T08:52:06;2.30;;;1.00;;
25327;SDS011;13279;51.300;12.394;2023-03-13T08:54:34;1.07;;;0.80;;
25327;SDS011;13279;51.300;12.394;2023-03-13T08:57:01;2.13;;;0.90;;
25327;SDS011;13279;51.300;12.394;2023-03-13T08:59:29;3.43;;;1.63;;
25327;SDS011;13279;51.300;12.394;2023-03-13T09:01:58;1.70;;;1.40;;
25327;SDS011;13279;51.300;12.394;2023-03-13T09:04:25;2.20;;;0.83;;
25327;SDS011;13279;51.300;12.394;2023-03-13T09:06:53;4.37;;;1.40;;
25327;SDS011;13279;51.300;12.394;2023-03-13T09:09:20;2.80;;;0.87;;
25327;SDS011;13279;51.300;12.394;2023-03-13T09:11:48;2.33;;;1.30;;
25327;SDS011;13279;51.300;12.394;2023-03-13T09:14:15;1.30;;;0.70;;
25327;SDS011;13279;51.300;12.394;2023-03-13T09:16:43;1.97;;;0.83;;
25327;SDS011;13279;51.300;12.394;2023-03-13T09:19:13;9.13;;;1.27;;
25327;SDS011;13279;51.300;12.394;2023-03-13T09:21:41;5.33;;;1.20;;
25327;SDS011;13279;51.300;12.394;2023-03-13T09:24:09;1.30;;;0.80;;
25327;SDS011;13279;51.300;12.394;2023-03-13T09:26:36;6.17;;;1.60;;
25327;SDS011;13279;51.300;12.394;2023-03-13T09:29:04;2.73;;;0.93;;
25327;SDS011;13279;51.300;12.394;2023-03-13T09:31:32;0.40;;;0.40;;
25327;SDS011;13279;51.300;12.394;2023-03-13T09:33:59;0.77;;;0.70;;
25327;SDS011;13279;51.300;12.394;2023-03-13T09:36:28;1.97;;;0.80;;
25327;SDS011;13279;51.300;12.394;2023-03-13T09:38:57;3.93;;;1.00;;
25327;SDS011;13279;51.300;12.394;2023-03-13T09:41:26;2.63;;;1.10;;
25327;SDS011;13279;51.300;12.394;2023-03-13T09:44:00;2.93;;;1.23;;
25327;SDS011;13279;51.300;12.394;2023-03-13T09:46:32;2.50;;;1.17;;
25327;SDS011;13279;51.300;12.394;2023-03-13T09:49:04;2.03;;;1.30;;
25327;SDS011;13279;51.300;12.394;2023-03-13T09:51:41;1.33;;;0.73;;
25327;SDS011;13279;51.300;12.394;2023-03-13T09:54:16;1.50;;;0.80;;
25327;SDS011;13279;51.300;12.394;2023-03-13T09:56:50;1.83;;;0.93;;
25327;SDS011;13279;51.300;12.394;2023-03-13T09:59:21;0.80;;;0.80;;
25327;SDS011;13279;51.300;12.394;2023-03-13T10:01:56;1.70;;;0.77;;
25327;SDS011;13279;51.300;12.394;2023-03-13T10:04:27;1.33;;;0.70;;
25327;SDS011;13279;51.300;12.394;2023-03-13T10:07:01;4.30;;;0.90;;
25327;SDS011;13279;51.300;12.394;2023-03-13T10:09:29;2.57;;;0.57;;
25327;SDS011;13279;51.300;12.394;2023-03-13T10:12:05;1.30;;;0.90;;
25327;SDS011;13279;51.300;12.394;2023-03-13T10:14:40;0.87;;;0.77;;
25327;SDS011;13279;51.300;12.394;2023-03-13T10:17:13;2.40;;;1.13;;
25327;SDS011;13279;51.300;12.394;2023-03-13T10:19:53;1.53;;;1.00;;
25327;SDS011;13279;51.300;12.394;2023-03-13T10:22:26;2.03;;;0.93;;
25327;SDS011;13279;51.300;12.394;2023-03-13T10:24:57;1.53;;;0.90;;
25327;SDS011;13279;51.300;12.394;2023-03-13T10:27:26;0.80;;;0.80;;
25327;SDS011;13279;51.300;12.394;2023-03-13T10:29:53;0.83;;;0.83;;
25327;SDS011;13279;51.300;12.394;2023-03-13T10:32:21;2.10;;;0.80;;
25327;SDS011;13279;51.300;12.394;2023-03-13T10:34:49;3.87;;;0.87;;
25327;SDS011;13279;51.300;12.394;2023-03-13T10:37:20;0.60;;;0.60;;
25327;SDS011;13279;51.300;12.394;2023-03-13T10:39:51;0.60;;;0.60;;
25327;SDS011;13279;51.300;12.394;2023-03-13T10:42:24;2.10;;;1.03;;
25327;SDS011;13279;51.300;12.394;2023-03-13T10:45:00;2.03;;;0.67;;
25327;SDS011;13279;51.300;12.394;2023-03-13T10:47:31;2.17;;;0.60;;
25327;SDS011;13279;51.300;12.394;2023-03-13T10:49:59;0.50;;;0.50;;
25327;SDS011;13279;51.300;12.394;2023-03-13T10:52:41;0.97;;;0.77;;
25327;SDS011;13279;51.300;12.394;2023-03-13T10:55:13;1.07;;;0.57;;
25327;SDS011;13279;51.300;12.394;2023-03-13T10:57:49;1.23;;;0.60;;
25327;SDS011;13279;51.300;12.394;2023-03-13T11:00:32;0.63;;;0.50;;
25327;SDS011;13279;51.300;12.394;2023-03-13T11:03:01;0.97;;;0.63;;
25327;SDS011;13279;51.300;12.394;2023-03-13T11:05:36;0.80;;;0.80;;
25327;SDS011;13279;51.300;12.394;2023-03-13T11:08:20;2.03;;;0.70;;
25327;SDS011;13279;51.300;12.394;2023-03-13T11:10:54;3.47;;;0.60;;
25327;SDS011;13279;51.300;12.394;2023-03-13T11:13:32;1.23;;;0.80;;
25327;SDS011;13279;51.300;12.394;2023-03-13T11:16:12;2.90;;;0.80;;
25327;SDS011;13279;51.300;12.394;2023-03-13T11:21:47;1.40;;;0.90;;
25327;SDS011;13279;51.300;12.394;2023-03-13T11:24:25;0.70;;;0.70;;
25327;SDS011;13279;51.300;12.394;2023-03-13T11:27:05;2.93;;;0.87;;
25327;SDS011;13279;51.300;12.394;2023-03-13T11:29:43;1.07;;;0.70;;
25327;SDS011;13279;51.300;12.394;2023-03-13T11:32:22;2.93;;;0.90;;
25327;SDS011;13279;51.300;12.394;2023-03-13T11:34:57;1.40;;;0.80;;
25327;SDS011;13279;51.300;12.394;2023-03-13T11:37:27;1.20;;;0.80;;
25327;SDS011;13279;51.300;12.394;2023-03-13T11:40:02;1.03;;;0.70;;
25327;SDS011;13279;51.300;12.394;2023-03-13T11:42:45;0.60;;;0.60;;
25327;SDS011;13279;51.300;12.394;2023-03-13T11:45:33;0.83;;;0.60;;
25327;SDS011;13279;51.300;12.394;2023-03-13T11:48:20;1.40;;;0.70;;
25327;SDS011;13279;51.300;12.394;2023-03-13T11:51:03;1.10;;;0.80;;
25327;SDS011;13279;51.300;12.394;2023-03-13T11:53:42;2.63;;;1.20;;
25327;SDS011;13279;51.300;12.394;2023-03-13T11:56:27;3.03;;;0.77;;
25327;SDS011;13279;51.300;12.394;2023-03-13T11:59:04;1.17;;;0.70;;
25327;SDS011;13279;51.300;12.394;2023-03-13T12:01:45;1.87;;;0.63;;
25327;SDS011;13279;51.300;12.394;2023-03-13T12:04:19;2.43;;;0.40;;
25327;SDS011;13279;51.300;12.394;2023-03-13T12:06:52;1.20;;;0.57;;
25327;SDS011;13279;51.300;12.394;2023-03-13T12:09:25;1.90;;;0.90;;
25327;SDS011;13279;51.300;12.394;2023-03-13T12:11:56;1.87;;;0.63;;
25327;SDS011;13279;51.300;12.394;2023-03-13T12:14:30;0.67;;;0.40;;
25327;SDS011;13279;51.300;12.394;2023-03-13T12:17:03;2.20;;;0.70;;
25327;SDS011;13279;51.300;12.394;2023-03-13T12:19:36;2.70;;;0.70;;
25327;SDS011;13279;51.300;12.394;2023-03-13T12:22:11;3.77;;;0.47;;
25327;SDS011;13279;51.300;12.394;2023-03-13T12:24:45;0.80;;;0.70;;
25327;SDS011;13279;51.300;12.394;2023-03-13T12:27:17;0.77;;;0.43;;
25327;SDS011;13279;51.300;12.394;2023-03-13T12:29:52;1.30;;;0.70;;
25327;SDS011;13279;51.300;12.394;2023-03-13T12:32:26;1.13;;;0.60;;
25327;SDS011;13279;51.300;12.394;2023-03-13T12:35:17;4.33;;;0.60;;
25327;SDS011;13279;51.300;12.394;2023-03-13T12:37:49;0.80;;;0.57;;
25327;SDS011;13279;51.300;12.394;2023-03-13T12:40:22;0.60;;;0.60;;
25327;SDS011;13279;51.300;12.394;2023-03-13T12:42:55;0.77;;;0.70;;
25327;SDS011;13279;51.300;12.394;2023-03-13T12:45:27;4.03;;;1.10;;
25327;SDS011;13279;51.300;12.394;2023-03-13T12:50:51;1.73;;;0.80;;
25327;SDS011;13279;51.300;12.394;2023-03-13T12:53:34;1.60;;;0.63;;
25327;SDS011;13279;51.300;12.394;2023-03-13T12:56:31;0.73;;;0.60;;
25327;SDS011;13279;51.300;12.394;2023-03-13T12:59:09;6.00;;;0.93;;
25327;SDS011;13279;51.300;12.394;2023-03-13T13:01:43;2.30;;;0.80;;
25327;SDS011;13279;51.300;12.394;2023-03-13T13:04:14;0.83;;;0.67;;
25327;SDS011;13279;51.300;12.394;2023-03-13T13:06:49;3.63;;;0.70;;
25327;SDS011;13279;51.300;12.394;2023-03-13T13:09:27;1.90;;;0.80;;
25327;SDS011;13279;51.300;12.394;2023-03-13T13:11:56;3.67;;;0.90;;
25327;SDS011;13279;51.300;12.394;2023-03-13T13:17:38;1.57;;;0.70;;
25327;SDS011;13279;51.300;12.394;2023-03-13T13:20:29;0.80;;;0.80;;
25327;SDS011;13279;51.300;12.394;2023-03-13T13:32:38;2.63;;;0.97;;
25327;SDS011;13279;51.300;12.394;2023-03-13T13:35:24;1.90;;;1.00;;
25327;SDS011;13279;51.300;12.394;2023-03-13T13:40:59;1.23;;;0.87;;
25327;SDS011;13279;51.300;12.394;2023-03-13T13:43:30;0.80;;;0.80;;
25327;SDS011;13279;51.300;12.394;2023-03-13T13:46:00;0.93;;;0.60;;
25327;SDS011;13279;51.300;12.394;2023-03-13T13:48:35;0.77;;;0.77;;
25327;SDS011;13279;51.300;12.394;2023-03-13T13:54:00;1.90;;;0.50;;
25327;SDS011;13279;51.300;12.394;2023-03-13T13:56:32;1.03;;;0.97;;
25327;SDS011;13279;51.300;12.394;2023-03-13T14:04:48;2.60;;;1.20;;
25327;SDS011;13279;51.300;12.394;2023-03-13T14:07:23;2.10;;;0.77;;
25327;SDS011;13279;51.300;12.394;2023-03-13T14:10:05;1.40;;;1.00;;
25327;SDS011;13279;51.300;12.394;2023-03-13T14:12:44;1.43;;;0.90;;
25327;SDS011;13279;51.300;12.394;2023-03-13T14:15:14;3.73;;;0.77;;
25327;SDS011;13279;51.300;12.394;2023-03-13T14:17:44;0.97;;;0.80;;
25327;SDS011;13279;51.300;12.394;2023-03-13T14:20:21;1.73;;;0.80;;
25327;SDS011;13279;51.300;12.394;2023-03-13T14:22:49;0.93;;;0.90;;
25327;SDS011;13279;51.300;12.394;2023-03-13T14:25:17;2.20;;;0.97;;
25327;SDS011;13279;51.300;12.394;2023-03-13T14:27:46;2.73;;;1.27;;
25327;SDS011;13279;51.300;12.394;2023-03-13T14:30:15;1.00;;;0.70;;
25327;SDS011;13279;51.300;12.394;2023-03-13T14:32:44;2.50;;;1.30;;
25327;SDS011;13279;51.300;12.394;2023-03-13T14:35:13;0.83;;;0.83;;
25327;SDS011;13279;51.300;12.394;2023-03-13T14:37:45;0.80;;;0.80;;
25327;SDS011;13279;51.300;12.394;2023-03-13T14:40:24;2.20;;;0.97;;
25327;SDS011;13279;51.300;12.394;2023-03-13T14:42:54;1.20;;;0.87;;
25327;SDS011;13279;51.300;12.394;2023-03-13T14:45:27;0.97;;;0.90;;
25327;SDS011;13279;51.300;12.394;2023-03-13T14:48:00;2.17;;;1.10;;
25327;SDS011;13279;51.300;12.394;2023-03-13T14:50:29;1.23;;;1.07;;
25327;SDS011;13279;51.300;12.394;2023-03-13T14:52:58;3.63;;;0.97;;
25327;SDS011;13279;51.300;12.394;2023-03-13T14:55:31;1.20;;;1.10;;
25327;SDS011;13279;51.300;12.394;2023-03-13T14:58:02;1.07;;;1.00;;
25327;SDS011;13279;51.300;12.394;2023-03-13T15:00:36;1.00;;;0.90;;
25327;SDS011;13279;51.300;12.394;2023-03-13T15:03:17;2.70;;;0.93;;
25327;SDS011;13279;51.300;12.394;2023-03-13T15:06:01;0.80;;;0.80;;
25327;SDS011;13279;51.300;12.394;2023-03-13T15:08:33;0.97;;;0.80;;
25327;SDS011;13279;51.300;12.394;2023-03-13T15:11:03;1.93;;;0.80;;
25327;SDS011;13279;51.300;12.394;2023-03-13T15:13:47;1.70;;;0.80;;
25327;SDS011;13279;51.300;12.394;2023-03-13T15:16:15;0.80;;;0.80;;
25327;SDS011;13279;51.300;12.394;2023-03-13T15:18:45;1.27;;;0.93;;
25327;SDS011;13279;51.300;12.394;2023-03-13T15:21:18;1.00;;;1.00;;
25327;SDS011;13279;51.300;12.394;2023-03-13T15:23:53;2.30;;;1.30;;
25327;SDS011;13279;51.300;12.394;2023-03-13T15:26:22;1.47;;;1.20;;
25327;SDS011;13279;51.300;12.394;2023-03-13T15:28:49;1.33;;;1.20;;
25327;SDS011;13279;51.300;12.394;2023-03-13T15:31:17;1.10;;;1.00;;